Time;durP1;ratioP1;P1;durP2;ratioP2;P2;SDS_P1;SDS_P2;PMS_P1;PMS_P2;Temp;Humidity;BMP_temperature;BMP_pressure;BME280_temperature;BME280_humidity;BME280_pressure;Samples;Min_cycle;Max_cycle;Signal;HPM_P1;HPM_P2
2022/01/07 00:00:39;;;;;;;9.68;6.88;;;4.30;99.90;;;;;;5035973;28;20044;-76
2022/01/07 00:03:05;;;;;;;8.57;4.70;;;4.30;99.90;;;;;;5032862;28;20045;-76
2022/01/07 00:05:31;;;;;;;8.60;6.43;;;4.30;99.90;;;;;;5034200;28;20747;-76
2022/01/07 00:07:57;;;;;;;12.45;6.10;;;4.30;99.90;;;;;;5037772;28;20118;-76
2022/01/07 00:10:23;;;;;;;12.02;6.40;;;4.30;99.90;;;;;;5037886;28;20488;-76
2022/01/07 00:12:50;;;;;;;6.93;5.15;;;4.30;99.90;;;;;;5020169;28;20151;-76
2022/01/07 00:15:16;;;;;;;13.48;5.55;;;4.30;99.90;;;;;;5020334;28;20048;-76
2022/01/07 00:17:42;;;;;;;10.18;6.00;;;4.30;99.90;;;;;;5038421;28;20048;-76
2022/01/07 00:20:10;;;;;;;12.23;5.60;;;4.30;99.90;;;;;;5038664;28;20040;-76
2022/01/07 00:22:37;;;;;;;9.55;6.22;;;4.30;99.90;;;;;;5020811;28;20488;-76
2022/01/07 00:25:03;;;;;;;9.13;6.07;;;4.30;99.90;;;;;;5020503;28;20458;-76
2022/01/07 00:27:28;;;;;;;10.93;5.72;;;4.30;99.90;;;;;;5038220;28;20041;-77
2022/01/07 00:29:54;;;;;;;11.90;6.70;;;4.30;99.90;;;;;;5038501;28;20090;-76
2022/01/07 00:32:19;;;;;;;7.68;4.90;;;4.30;99.90;;;;;;5019348;28;20063;-76
2022/01/07 00:34:45;;;;;;;8.90;5.72;;;4.30;99.90;;;;;;5038065;28;20045;-76
2022/01/07 00:37:11;;;;;;;11.50;5.47;;;4.30;99.90;;;;;;5019906;28;20045;-76
2022/01/07 00:39:37;;;;;;;10.15;5.57;;;4.30;99.90;;;;;;5037548;28;20617;-76
2022/01/07 00:42:03;;;;;;;7.47;4.97;;;4.30;99.90;;;;;;5019533;28;20061;-76
2022/01/07 00:44:29;;;;;;;11.25;5.00;;;4.30;99.90;;;;;;5019772;28;20080;-76
2022/01/07 00:46:54;;;;;;;8.60;5.18;;;4.30;99.90;;;;;;5019561;28;20147;-75
2022/01/07 00:49:22;;;;;;;7.63;4.90;;;4.30;99.90;;;;;;5020622;28;20114;-74
2022/01/07 00:51:50;;;;;;;10.60;5.25;;;4.20;99.90;;;;;;5038566;28;20130;-75
2022/01/07 00:54:17;;;;;;;6.80;5.45;;;4.20;99.90;;;;;;5019398;28;20071;-74
2022/01/07 00:56:43;;;;;;;14.27;6.78;;;4.20;99.90;;;;;;5019887;28;20056;-74
2022/01/07 00:59:09;;;;;;;7.82;5.13;;;4.10;99.90;;;;;;5019833;28;20052;-74
2022/01/07 01:01:36;;;;;;;13.32;5.93;;;4.10;99.90;;;;;;5016516;28;20044;-74
2022/01/07 01:04:02;;;;;;;7.70;4.82;;;4.00;99.90;;;;;;5036635;28;20144;-75
2022/01/07 01:06:28;;;;;;;10.50;5.28;;;4.00;99.90;;;;;;5018766;28;20309;-75
2022/01/07 01:08:53;;;;;;;7.05;4.00;;;4.00;99.90;;;;;;5018948;28;20496;-73
2022/01/07 01:11:19;;;;;;;5.65;4.53;;;3.90;99.90;;;;;;5018719;28;20045;-74
2022/01/07 01:13:44;;;;;;;10.20;5.15;;;3.90;99.90;;;;;;5019244;28;20071;-74
2022/01/07 01:16:10;;;;;;;7.40;5.43;;;3.80;99.90;;;;;;5019844;28;20562;-74
2022/01/07 01:18:35;;;;;;;11.20;4.95;;;3.80;99.90;;;;;;5036346;28;20052;-74
2022/01/07 01:21:01;;;;;;;7.10;4.25;;;3.80;99.90;;;;;;5036404;28;20045;-76
2022/01/07 01:23:27;;;;;;;8.55;5.07;;;3.70;99.90;;;;;;5037123;28;20055;-77
2022/01/07 01:25:52;;;;;;;15.07;4.90;;;3.70;99.90;;;;;;5019430;28;20048;-78
2022/01/07 01:28:18;;;;;;;10.23;5.18;;;3.70;99.90;;;;;;5036825;28;20033;-76
2022/01/07 01:30:44;;;;;;;8.65;4.72;;;3.60;99.90;;;;;;5020005;28;20049;-78
2022/01/07 01:33:12;;;;;;;9.48;5.10;;;3.60;99.90;;;;;;5033709;28;20053;-78
2022/01/07 01:35:39;;;;;;;12.23;5.13;;;3.60;99.90;;;;;;5019147;28;20056;-78
2022/01/07 01:38:04;;;;;;;9.90;4.80;;;3.60;99.90;;;;;;5038249;28;20053;-78
2022/01/07 01:40:31;;;;;;;9.57;5.13;;;3.60;99.90;;;;;;5020407;28;20431;-78
2022/01/07 01:42:57;;;;;;;5.45;4.53;;;3.60;99.90;;;;;;5019791;28;20061;-79
2022/01/07 01:45:24;;;;;;;12.55;5.53;;;3.50;99.90;;;;;;5038369;28;20507;-79
2022/01/07 01:47:53;;;;;;;9.52;5.53;;;3.50;99.90;;;;;;5038731;28;20052;-79
2022/01/07 01:50:19;;;;;;;17.65;5.95;;;3.50;99.90;;;;;;5019623;28;20690;-79
2022/01/07 01:52:50;;;;;;;11.45;5.13;;;3.40;99.90;;;;;;5020106;28;20041;-78
2022/01/07 01:55:18;;;;;;;8.70;5.15;;;3.40;99.90;;;;;;5038030;28;20045;-78
2022/01/07 01:57:44;;;;;;;9.68;4.80;;;3.40;99.90;;;;;;5020075;28;20049;-78
2022/01/07 02:00:11;;;;;;;9.40;4.90;;;3.40;99.90;;;;;;5038968;28;20055;-78
2022/01/07 02:02:37;;;;;;;11.18;5.50;;;3.40;99.90;;;;;;5038813;28;20135;-78
2022/01/07 02:05:03;;;;;;;7.65;4.97;;;3.40;99.90;;;;;;5019562;28;20053;-79
2022/01/07 02:07:29;;;;;;;10.38;5.70;;;3.40;99.90;;;;;;5037694;28;20072;-79
2022/01/07 02:09:55;;;;;;;7.18;5.43;;;3.40;99.90;;;;;;5019501;28;20190;-78
2022/01/07 02:12:21;;;;;;;7.68;5.45;;;3.30;99.90;;;;;;5037968;28;20068;-79
2022/01/07 02:14:52;;;;;;;11.38;5.25;;;3.40;99.90;;;;;;5020168;28;20053;-79
2022/01/07 02:17:18;;;;;;;10.63;6.30;;;3.30;99.90;;;;;;5020489;28;20832;-80
2022/01/07 02:19:44;;;;;;;8.65;5.28;;;3.30;99.90;;;;;;5038436;28;20148;-80
2022/01/07 02:22:12;;;;;;;8.02;5.38;;;3.30;99.90;;;;;;5020216;28;20059;-80
2022/01/07 02:24:37;;;;;;;8.23;5.05;;;3.20;99.90;;;;;;5038481;28;20094;-81
2022/01/07 02:27:05;;;;;;;6.82;4.93;;;3.00;99.90;;;;;;5039402;28;20070;-81
2022/01/07 02:29:31;;;;;;;7.82;5.03;;;3.20;99.90;;;;;;5021878;28;20061;-82
2022/01/07 02:31:56;;;;;;;9.75;6.63;;;3.30;99.90;;;;;;5021021;28;20056;-84
2022/01/07 02:34:22;;;;;;;15.40;6.05;;;3.20;99.90;;;;;;5021054;28;20049;-81
2022/01/07 02:36:48;;;;;;;7.35;6.35;;;3.20;99.90;;;;;;5020684;28;20033;-82
2022/01/07 02:39:15;;;;;;;16.15;6.30;;;3.20;99.90;;;;;;5020612;28;20061;-82
2022/01/07 02:41:41;;;;;;;7.97;5.45;;;3.20;99.90;;;;;;5038709;28;20061;-82
2022/01/07 02:44:06;;;;;;;8.55;6.47;;;3.20;99.90;;;;;;5041575;28;20453;-83
2022/01/07 02:46:32;;;;;;;6.95;4.93;;;3.20;99.90;;;;;;5038277;28;20053;-85
2022/01/07 02:48:58;;;;;;;10.27;5.97;;;3.20;99.90;;;;;;5020258;28;20052;-83
2022/01/07 02:51:23;;;;;;;7.25;6.00;;;3.10;99.90;;;;;;5019955;28;20123;-84
2022/01/07 02:53:49;;;;;;;8.00;6.38;;;3.10;99.90;;;;;;5037817;28;20064;-85
2022/01/07 02:56:14;;;;;;;8.68;6.13;;;2.90;99.90;;;;;;5021498;28;20765;-84
2022/01/07 02:58:40;;;;;;;12.63;6.63;;;3.10;99.90;;;;;;5020026;28;20080;-86
2022/01/07 03:01:07;;;;;;;7.32;5.35;;;3.10;99.90;;;;;;5018775;28;20476;-84
2022/01/07 03:03:33;;;;;;;11.60;6.43;;;3.10;99.90;;;;;;5019427;28;20052;-84
2022/01/07 03:05:58;;;;;;;10.55;5.97;;;3.10;99.90;;;;;;5038634;28;20041;-83
2022/01/07 03:08:24;;;;;;;9.00;6.63;;;3.10;99.90;;;;;;5025090;28;20049;-82
2022/01/07 03:10:50;;;;;;;9.50;7.38;;;3.10;99.90;;;;;;5045042;28;20461;-81
2022/01/07 03:13:15;;;;;;;11.00;6.10;;;3.10;99.90;;;;;;5026698;28;20048;-82
2022/01/07 03:15:41;;;;;;;10.70;5.90;;;3.10;99.90;;;;;;5039443;28;20088;-82
2022/01/07 03:18:08;;;;;;;8.13;5.85;;;3.10;99.90;;;;;;5020468;28;20166;-82
2022/01/07 03:20:38;;;;;;;8.35;6.50;;;3.10;99.90;;;;;;5020664;28;20052;-81
2022/01/07 03:23:09;;;;;;;13.35;7.07;;;3.10;99.90;;;;;;5020202;28;20594;-79
2022/01/07 03:25:35;;;;;;;9.55;6.50;;;3.20;99.90;;;;;;5019949;28;20060;-79
2022/01/07 03:28:02;;;;;;;10.75;8.27;;;3.20;99.90;;;;;;5020504;28;20049;-79
2022/01/07 03:30:27;;;;;;;10.80;6.95;;;4.30;99.90;;;;;;5038617;28;20052;-78
2022/01/07 03:32:53;;;;;;;7.70;5.43;;;3.20;99.90;;;;;;5020605;28;20049;-79
2022/01/07 03:35:19;;;;;;;10.77;7.50;;;3.20;99.90;;;;;;5036149;28;20493;-79
2022/01/07 03:37:47;;;;;;;6.00;5.28;;;3.20;99.90;;;;;;5037570;28;20041;-78
2022/01/07 03:40:13;;;;;;;9.95;6.32;;;3.20;99.90;;;;;;5019845;28;20377;-79
2022/01/07 03:42:39;;;;;;;11.25;5.63;;;3.20;99.90;;;;;;5040708;28;20071;-79
2022/01/07 03:45:06;;;;;;;8.35;7.22;;;3.20;99.90;;;;;;5023745;28;20103;-79
2022/01/07 03:47:32;;;;;;;12.63;6.22;;;3.20;99.90;;;;;;5023477;28;20078;-79
2022/01/07 03:49:58;;;;;;;9.20;6.13;;;3.20;99.90;;;;;;5041387;28;20590;-79
2022/01/07 03:52:24;;;;;;;11.23;7.13;;;3.20;99.90;;;;;;5041961;28;20049;-79
2022/01/07 03:54:50;;;;;;;13.15;7.15;;;3.00;99.90;;;;;;5024817;28;20071;-79
2022/01/07 03:57:17;;;;;;;10.95;6.93;;;3.30;99.90;;;;;;5023728;28;20045;-80
2022/01/07 03:59:43;;;;;;;10.63;6.65;;;3.30;99.90;;;;;;5043178;28;20193;-82
2022/01/07 04:02:08;;;;;;;9.18;6.90;;;3.30;99.90;;;;;;5026163;28;20048;-81
2022/01/07 04:04:34;;;;;;;14.05;7.70;;;3.30;99.90;;;;;;5044504;28;20044;-81
2022/01/07 04:06:59;;;;;;;8.20;7.40;;;3.30;99.90;;;;;;5024457;28;20040;-81
2022/01/07 04:09:25;;;;;;;7.72;6.95;;;3.30;99.90;;;;;;5022542;28;20121;-80
2022/01/07 04:11:51;;;;;;;9.52;6.85;;;3.30;99.90;;;;;;5040856;28;20091;-80
2022/01/07 04:14:17;;;;;;;11.30;7.07;;;3.40;99.90;;;;;;5022576;28;20128;-80
2022/01/07 04:16:42;;;;;;;9.52;8.32;;;3.30;99.90;;;;;;5040215;28;20059;-80
2022/01/07 04:19:08;;;;;;;9.25;6.32;;;3.30;99.90;;;;;;5022825;28;20709;-80
2022/01/07 04:21:33;;;;;;;12.05;7.20;;;3.30;99.90;;;;;;5023560;28;20049;-80
2022/01/07 04:23:59;;;;;;;12.35;6.90;;;3.40;99.90;;;;;;5022779;28;20101;-81
2022/01/07 04:26:25;;;;;;;10.90;7.80;;;3.30;99.90;;;;;;5023572;28;20048;-84
2022/01/07 04:28:50;;;;;;;8.35;6.20;;;3.40;99.90;;;;;;5023245;28;20061;-82
2022/01/07 04:31:16;;;;;;;13.68;6.82;;;3.40;99.90;;;;;;5040293;28;20040;-84
2022/01/07 04:33:41;;;;;;;6.82;5.82;;;3.30;99.90;;;;;;5041023;28;20530;-84
2022/01/07 04:36:07;;;;;;;7.30;5.63;;;3.30;99.90;;;;;;5022511;28;20170;-83
2022/01/07 04:38:33;;;;;;;9.25;6.22;;;3.40;99.90;;;;;;5022111;28;20049;-84
2022/01/07 04:40:58;;;;;;;9.77;6.45;;;3.40;99.90;;;;;;5022362;28;20118;-83
2022/01/07 04:43:24;;;;;;;8.02;6.35;;;3.40;99.90;;;;;;5040965;28;20396;-84
2022/01/07 04:45:51;;;;;;;7.47;6.65;;;3.40;99.90;;;;;;5040447;28;20048;-83
2022/01/07 04:48:17;;;;;;;8.50;5.90;;;3.40;99.90;;;;;;5022106;28;20049;-83
2022/01/07 04:50:42;;;;;;;8.18;6.60;;;3.40;99.90;;;;;;5022660;28;20430;-82
2022/01/07 04:53:08;;;;;;;8.40;6.38;;;3.40;99.90;;;;;;5042521;28;20072;-81
2022/01/07 04:55:37;;;;;;;7.07;6.18;;;3.40;99.90;;;;;;5045672;28;20048;-81
2022/01/07 04:58:09;;;;;;;6.32;5.72;;;3.40;99.90;;;;;;5028055;28;20131;-82
2022/01/07 05:00:36;;;;;;;9.05;6.95;;;3.40;99.90;;;;;;5028764;28;20152;-82
2022/01/07 05:03:01;;;;;;;10.15;5.90;;;3.40;99.90;;;;;;5024023;28;20059;-81
2022/01/07 05:05:27;;;;;;;8.43;6.47;;;3.50;99.90;;;;;;5040860;28;20847;-81
2022/01/07 05:07:53;;;;;;;6.78;5.18;;;3.50;99.90;;;;;;5039961;28;20132;-81
2022/01/07 05:10:18;;;;;;;11.35;7.07;;;3.50;99.90;;;;;;5022252;28;20080;-81
2022/01/07 05:12:45;;;;;;;8.70;6.28;;;3.50;99.90;;;;;;5039927;28;20063;-81
2022/01/07 05:15:12;;;;;;;8.50;6.18;;;3.50;99.90;;;;;;5040566;28;20057;-81
2022/01/07 05:17:38;;;;;;;9.00;6.07;;;3.50;99.90;;;;;;5024073;28;20727;-81
2022/01/07 05:20:05;;;;;;;7.78;6.05;;;3.50;99.90;;;;;;5025023;28;20052;-81
2022/01/07 05:22:30;;;;;;;8.25;6.38;;;3.60;99.90;;;;;;5022860;28;20080;-81
2022/01/07 05:24:56;;;;;;;7.75;5.90;;;3.60;99.90;;;;;;5041089;28;20744;-80
2022/01/07 05:27:21;;;;;;;7.47;6.72;;;3.60;99.90;;;;;;5021499;28;20130;-80
2022/01/07 05:29:47;;;;;;;8.88;6.43;;;3.60;99.90;;;;;;5040691;28;20049;-80
2022/01/07 05:32:13;;;;;;;6.68;5.50;;;3.60;99.90;;;;;;5040238;28;20058;-80
2022/01/07 05:34:39;;;;;;;9.13;4.93;;;3.60;99.90;;;;;;5022140;28;20055;-80
2022/01/07 05:37:04;;;;;;;8.35;5.05;;;3.70;99.90;;;;;;5041051;28;20036;-79
2022/01/07 05:39:30;;;;;;;8.98;4.97;;;3.60;99.90;;;;;;5022478;28;20053;-79
2022/01/07 05:41:57;;;;;;;8.38;7.38;;;3.60;99.90;;;;;;5021680;28;20591;-79
2022/01/07 05:44:23;;;;;;;6.97;5.70;;;3.60;99.90;;;;;;5022038;28;20044;-80
2022/01/07 05:46:49;;;;;;;6.38;5.60;;;3.60;99.90;;;;;;5022306;28;20049;-79
2022/01/07 05:49:14;;;;;;;9.05;6.13;;;3.60;99.90;;;;;;5039509;28;20066;-79
2022/01/07 05:51:41;;;;;;;5.35;4.70;;;3.70;99.90;;;;;;5019190;28;20053;-79
2022/01/07 05:54:07;;;;;;;7.47;5.47;;;3.70;99.90;;;;;;5018893;28;20091;-79
2022/01/07 05:56:33;;;;;;;7.30;5.65;;;3.70;99.90;;;;;;5019253;28;20044;-79
2022/01/07 05:58:58;;;;;;;8.50;5.43;;;3.70;99.90;;;;;;5036951;28;20539;-78
2022/01/07 06:01:24;;;;;;;7.80;5.45;;;3.70;99.90;;;;;;5019035;28;20056;-78
2022/01/07 06:03:50;;;;;;;6.53;5.45;;;3.70;99.90;;;;;;5017610;28;20474;-78
2022/01/07 06:06:15;;;;;;;8.80;6.47;;;3.70;99.90;;;;;;5019072;28;20056;-78
2022/01/07 06:08:41;;;;;;;6.60;5.70;;;3.70;99.90;;;;;;5018443;28;20064;-78
2022/01/07 06:11:06;;;;;;;6.57;4.70;;;3.70;99.90;;;;;;5017845;28;20045;-78
2022/01/07 06:13:32;;;;;;;10.05;6.88;;;3.70;99.90;;;;;;5018318;28;20514;-79
2022/01/07 06:15:57;;;;;;;6.38;5.22;;;3.70;99.90;;;;;;5018394;28;20119;-78
2022/01/07 06:18:23;;;;;;;5.78;5.28;;;3.70;99.90;;;;;;5036038;28;20036;-78
2022/01/07 06:20:49;;;;;;;8.60;5.85;;;3.70;99.90;;;;;;5018788;28;20564;-78
2022/01/07 06:23:16;;;;;;;7.65;5.50;;;3.70;99.90;;;;;;5017830;28;20053;-78
2022/01/07 06:25:44;;;;;;;6.30;5.10;;;3.70;99.90;;;;;;5036467;28;20802;-79
2022/01/07 06:28:10;;;;;;;6.25;4.57;;;3.70;99.90;;;;;;5035970;28;20049;-78
2022/01/07 06:30:36;;;;;;;8.27;5.47;;;3.80;99.90;;;;;;5017339;28;20683;-78
2022/01/07 06:33:01;;;;;;;6.00;5.00;;;3.80;99.90;;;;;;5036381;28;20146;-78
2022/01/07 06:35:27;;;;;;;7.15;5.85;;;3.80;99.90;;;;;;5017907;28;20049;-78
2022/01/07 06:37:52;;;;;;;6.05;5.13;;;3.80;99.90;;;;;;5019277;28;20162;-79
2022/01/07 06:40:18;;;;;;;8.88;5.82;;;3.50;99.90;;;;;;5019375;28;20051;-78
2022/01/07 06:42:44;;;;;;;9.10;5.78;;;3.80;99.90;;;;;;5038240;28;20088;-78
2022/01/07 06:45:10;;;;;;;6.70;5.18;;;3.80;99.90;;;;;;5019433;28;20500;-78
2022/01/07 06:47:36;;;;;;;5.40;4.88;;;3.80;99.90;;;;;;5020136;28;20045;-77
2022/01/07 06:50:01;;;;;;;7.75;5.50;;;3.80;99.90;;;;;;5038520;28;20815;-78
2022/01/07 06:52:28;;;;;;;7.80;5.78;;;3.80;99.90;;;;;;5038046;28;20048;-78
2022/01/07 06:54:54;;;;;;;8.40;6.20;;;3.80;99.90;;;;;;5020302;28;20111;-78
2022/01/07 06:57:19;;;;;;;10.38;6.82;;;3.80;99.90;;;;;;5039096;28;20555;-78
2022/01/07 06:59:45;;;;;;;6.90;5.40;;;3.90;99.90;;;;;;5020459;28;20041;-78
2022/01/07 07:02:11;;;;;;;8.18;5.95;;;3.90;99.90;;;;;;5020860;28;20502;-78
2022/01/07 07:04:36;;;;;;;6.75;5.25;;;3.90;99.90;;;;;;5020422;28;20748;-78
2022/01/07 07:07:02;;;;;;;7.18;5.93;;;3.90;99.90;;;;;;5020080;28;20515;-78
2022/01/07 07:09:28;;;;;;;6.60;5.90;;;3.90;99.90;;;;;;5038251;28;20076;-78
2022/01/07 07:11:53;;;;;;;5.72;4.90;;;4.00;99.90;;;;;;5020044;28;20052;-78
2022/01/07 07:14:19;;;;;;;5.95;5.35;;;3.90;99.90;;;;;;5037599;28;20056;-78
2022/01/07 07:16:44;;;;;;;7.50;5.50;;;4.00;99.90;;;;;;5022381;28;20160;-78
2022/01/07 07:19:10;;;;;;;6.93;4.97;;;4.00;99.90;;;;;;5024255;28;20132;-78
2022/01/07 07:21:36;;;;;;;7.18;5.22;;;4.00;99.90;;;;;;5041986;28;20083;-78
2022/01/07 07:24:02;;;;;;;8.40;4.97;;;4.00;99.90;;;;;;5042605;28;20048;-78
2022/01/07 07:26:28;;;;;;;6.35;4.88;;;4.00;99.90;;;;;;5023732;28;20048;-78
2022/01/07 07:28:54;;;;;;;8.00;6.40;;;4.00;99.90;;;;;;5023919;28;20044;-78
2022/01/07 07:31:20;;;;;;;7.05;5.60;;;4.00;99.90;;;;;;5041981;28;20060;-78
2022/01/07 07:36:31;;;;;;;8.60;6.07;;;4.10;99.90;;;;;;5042458;28;20056;-78
2022/01/07 07:39:01;;;;;;;7.90;5.47;;;4.10;99.90;;;;;;5042813;28;20053;-78
2022/01/07 07:41:28;;;;;;;6.68;5.72;;;4.10;99.90;;;;;;5040942;28;20114;-77
2022/01/07 07:43:56;;;;;;;7.38;5.35;;;4.10;99.90;;;;;;5023966;28;20152;-78
2022/01/07 07:46:21;;;;;;;9.50;6.63;;;4.10;99.90;;;;;;5023122;28;20084;-78
2022/01/07 07:48:47;;;;;;;20.15;6.90;;;4.20;99.90;;;;;;5023580;28;20183;-78
2022/01/07 07:51:13;;;;;;;7.88;6.38;;;4.20;99.90;;;;;;5042057;28;20125;-78
2022/01/07 07:53:40;;;;;;;10.18;6.03;;;4.30;99.90;;;;;;5042452;28;20094;-78
2022/01/07 07:56:06;;;;;;;10.43;6.45;;;4.20;99.90;;;;;;5023587;28;20053;-78
2022/01/07 07:58:32;;;;;;;11.02;8.18;;;4.20;99.90;;;;;;5023988;28;20063;-78
2022/01/07 08:00:58;;;;;;;10.15;7.35;;;4.20;99.90;;;;;;5041704;28;20583;-78
2022/01/07 08:03:25;;;;;;;12.55;7.60;;;4.30;99.90;;;;;;5022941;28;20066;-78
2022/01/07 08:05:50;;;;;;;9.88;7.63;;;4.30;99.90;;;;;;5041473;28;20098;-78
2022/01/07 08:08:16;;;;;;;8.60;6.75;;;4.30;99.90;;;;;;5041328;28;20056;-78
2022/01/07 08:10:48;;;;;;;10.50;7.88;;;4.30;99.90;;;;;;5040668;28;20967;-78
2022/01/07 08:15:58;;;;;;;15.50;8.15;;;4.30;99.90;;;;;;5023004;28;20662;-78
2022/01/07 08:18:29;;;;;;;10.68;8.48;;;4.40;99.90;;;;;;5041212;28;20053;-77
2022/01/07 08:20:57;;;;;;;12.98;7.70;;;4.40;99.90;;;;;;5023496;28;20464;-78
2022/01/07 08:23:22;;;;;;;9.93;8.32;;;4.40;99.90;;;;;;5041239;28;20106;-78
2022/01/07 08:25:49;;;;;;;9.30;8.40;;;4.50;99.90;;;;;;5024520;28;20433;-78
2022/01/07 08:28:16;;;;;;;10.00;7.28;;;4.50;99.90;;;;;;5040917;28;20781;-78
2022/01/07 08:36:11;;;;;;;12.63;8.90;;;4.60;99.90;;;;;;5021887;28;20084;-74
2022/01/07 08:38:37;;;;;;;12.13;8.90;;;4.60;99.90;;;;;;5022230;28;21034;-74
2022/01/07 08:41:03;;;;;;;12.32;8.95;;;4.60;99.90;;;;;;5022593;28;20064;-74
2022/01/07 08:43:28;;;;;;;13.70;9.45;;;4.70;99.90;;;;;;5023333;28;20071;-78
2022/01/07 08:45:54;;;;;;;11.02;9.13;;;4.70;99.90;;;;;;5040234;28;20040;-78
2022/01/07 08:48:19;;;;;;;14.13;10.70;;;4.70;99.90;;;;;;5021537;28;20084;-77
2022/01/07 08:50:45;;;;;;;18.20;10.35;;;4.80;99.90;;;;;;5038719;28;20123;-77
2022/01/07 08:53:11;;;;;;;16.52;10.18;;;4.80;99.90;;;;;;5020406;28;20562;-78
2022/01/07 08:55:37;;;;;;;11.75;9.88;;;4.80;99.90;;;;;;5038990;28;20037;-77
2022/01/07 08:58:03;;;;;;;15.68;11.18;;;4.90;99.90;;;;;;5020145;28;20138;-77
2022/01/07 09:00:32;;;;;;;14.57;10.05;;;5.00;99.90;;;;;;5038539;28;20051;-77
2022/01/07 09:02:58;;;;;;;17.20;10.80;;;5.00;99.90;;;;;;5037915;28;20771;-78
2022/01/07 09:05:24;;;;;;;15.00;10.30;;;5.00;99.90;;;;;;5037036;28;20107;-77
2022/01/07 09:07:50;;;;;;;17.65;11.82;;;5.00;99.90;;;;;;5020103;28;20787;-77
2022/01/07 09:10:15;;;;;;;19.85;10.32;;;5.10;99.90;;;;;;5038300;28;20907;-77
2022/01/07 09:12:41;;;;;;;19.23;11.45;;;5.10;99.90;;;;;;5036829;28;20052;-77
2022/01/07 09:15:07;;;;;;;20.40;11.65;;;5.10;99.90;;;;;;5037575;28;20795;-77
2022/01/07 09:17:34;;;;;;;16.20;10.85;;;5.20;99.90;;;;;;5020774;28;20045;-77
2022/01/07 09:19:59;;;;;;;22.60;11.10;;;5.20;99.90;;;;;;5038122;28;20040;-78
2022/01/07 09:22:25;;;;;;;15.05;10.82;;;5.20;99.90;;;;;;5020822;28;20370;-78
2022/01/07 09:24:51;;;;;;;17.52;10.85;;;5.20;99.90;;;;;;5021338;28;20087;-77
2022/01/07 09:27:16;;;;;;;17.80;11.07;;;5.30;99.90;;;;;;5020781;28;20773;-77
2022/01/07 09:29:42;;;;;;;14.55;11.55;;;5.30;99.90;;;;;;5040034;28;20045;-77
2022/01/07 09:32:08;;;;;;;18.48;10.43;;;5.30;99.90;;;;;;5021661;28;20173;-76
2022/01/07 09:34:35;;;;;;;17.70;10.25;;;5.30;99.90;;;;;;5039044;28;20076;-76
2022/01/07 09:37:02;;;;;;;18.58;12.95;;;5.40;99.90;;;;;;5022458;28;20461;-77
2022/01/07 09:39:27;;;;;;;15.15;10.77;;;5.40;99.90;;;;;;5038415;28;20084;-77
2022/01/07 09:41:53;;;;;;;21.15;10.98;;;5.40;99.90;;;;;;5035194;28;20063;-72
2022/01/07 09:44:18;;;;;;;18.08;11.43;;;5.40;99.90;;;;;;5017803;28;20137;-72
2022/01/07 09:46:44;;;;;;;18.00;9.93;;;5.50;99.90;;;;;;5035839;28;20124;-77
2022/01/07 09:49:10;;;;;;;19.15;10.82;;;5.60;99.90;;;;;;5034491;28;20080;-77
2022/01/07 09:51:39;;;;;;;12.68;9.00;;;5.60;99.90;;;;;;5034556;28;20063;-77
2022/01/07 09:54:06;;;;;;;17.15;10.63;;;5.60;99.90;;;;;;5033738;28;20432;-77
2022/01/07 09:56:31;;;;;;;14.43;9.77;;;5.70;99.90;;;;;;5034303;28;20045;-77
2022/01/07 09:58:57;;;;;;;23.40;11.70;;;5.70;99.90;;;;;;5034765;28;20056;-77
2022/01/07 10:01:25;;;;;;;18.77;10.80;;;5.70;99.90;;;;;;5016757;28;20037;-77
2022/01/07 10:03:51;;;;;;;14.68;10.35;;;5.70;99.90;;;;;;5035311;28;20089;-74
2022/01/07 10:06:24;;;;;;;15.55;11.18;;;5.70;99.90;;;;;;5017447;28;20131;-78
2022/01/07 10:09:10;;;;;;;10.90;7.75;;;5.70;99.90;;;;;;5032166;28;20041;-85
2022/01/07 10:11:37;;;;;;;10.13;6.85;;;5.60;99.90;;;;;;5018124;28;20060;-85
2022/01/07 10:14:21;;;;;;;10.55;7.55;;;5.40;99.90;;;;;;5018191;28;20048;-80
2022/01/07 10:16:56;;;;;;;15.27;7.97;;;5.50;99.90;;;;;;5017887;28;20114;-81
2022/01/07 10:19:53;;;;;;;16.23;8.88;;;5.50;99.90;;;;;;5036555;28;20053;-79
2022/01/07 10:22:18;;;;;;;11.55;7.40;;;5.50;99.90;;;;;;5018958;28;20057;-80
2022/01/07 10:24:59;;;;;;;6.20;4.15;;;5.50;99.90;;;;;;5017836;28;20099;-79
2022/01/07 10:27:27;;;;;;;7.22;5.38;;;5.40;99.90;;;;;;5036267;28;20049;-78
2022/01/07 10:29:53;;;;;;;7.20;5.50;;;5.50;99.90;;;;;;5017554;28;20057;-78
2022/01/07 10:32:37;;;;;;;6.93;5.75;;;5.40;99.90;;;;;;5035265;28;20160;-79
2022/01/07 10:35:19;;;;;;;8.18;4.70;;;5.50;99.90;;;;;;5035748;28;20045;-80
2022/01/07 10:37:49;;;;;;;4.43;3.00;;;5.50;99.90;;;;;;5035763;28;20091;-80
2022/01/07 10:40:22;;;;;;;6.88;4.15;;;5.60;99.90;;;;;;5017763;28;20121;-80
2022/01/07 10:42:48;;;;;;;3.58;3.28;;;5.70;99.90;;;;;;5014338;28;20511;-80
2022/01/07 10:45:14;;;;;;;6.50;2.70;;;5.80;99.90;;;;;;5014972;28;20084;-78
2022/01/07 10:47:39;;;;;;;2.78;1.80;;;5.90;99.90;;;;;;5013185;28;20050;-78
2022/01/07 10:50:19;;;;;;;2.83;1.83;;;5.80;99.90;;;;;;5013012;28;20103;-79
2022/01/07 10:52:45;;;;;;;2.05;1.48;;;5.90;99.90;;;;;;5014878;28;20054;-71
2022/01/07 10:55:19;;;;;;;3.88;3.08;;;5.80;99.90;;;;;;5012328;28;20080;-74
2022/01/07 10:57:50;;;;;;;2.75;1.50;;;5.80;99.90;;;;;;5012683;28;20393;-71
2022/01/07 11:00:21;;;;;;;2.22;1.80;;;5.70;99.90;;;;;;5014755;28;20175;-77
2022/01/07 11:02:48;;;;;;;2.67;2.15;;;5.60;99.90;;;;;;5028704;28;20050;-72
2022/01/07 11:05:13;;;;;;;4.88;2.50;;;5.60;99.90;;;;;;5012476;28;20060;-73
2022/01/07 11:07:39;;;;;;;3.90;2.85;;;5.70;99.90;;;;;;5012923;28;20057;-75
2022/01/07 11:10:07;;;;;;;4.43;3.03;;;5.70;99.90;;;;;;5011821;28;20056;-73
2022/01/07 11:12:34;;;;;;;5.00;3.60;;;5.60;99.90;;;;;;5011208;28;20386;-73
2022/01/07 11:15:01;;;;;;;6.50;2.88;;;5.60;99.90;;;;;;5012387;28;20041;-74
2022/01/07 11:17:27;;;;;;;6.00;3.17;;;5.60;99.90;;;;;;5011682;28;20152;-69
2022/01/07 11:19:59;;;;;;;4.85;2.90;;;5.60;99.90;;;;;;5013416;28;20102;-73
2022/01/07 11:22:25;;;;;;;8.35;4.43;;;5.60;99.90;;;;;;5014923;28;20160;-72
2022/01/07 11:25:05;;;;;;;6.07;3.75;;;5.60;99.90;;;;;;5015435;28;20057;-72
2022/01/07 11:27:31;;;;;;;6.40;5.05;;;5.70;99.90;;;;;;5011518;28;20107;-75
2022/01/07 11:30:02;;;;;;;10.88;5.10;;;5.70;99.90;;;;;;5013021;28;20062;-73
2022/01/07 11:32:41;;;;;;;7.72;3.85;;;5.70;99.90;;;;;;5012789;28;20103;-74
2022/01/07 11:35:19;;;;;;;5.90;4.45;;;5.70;99.90;;;;;;5012945;28;20050;-72
2022/01/07 11:37:50;;;;;;;9.65;5.28;;;5.60;99.90;;;;;;5013550;28;20049;-71
2022/01/07 11:40:28;;;;;;;12.00;5.53;;;5.70;99.90;;;;;;5013999;28;20594;-71
2022/01/07 11:42:54;;;;;;;7.40;4.95;;;5.70;99.90;;;;;;5033287;28;20063;-71
2022/01/07 11:45:27;;;;;;;13.10;5.65;;;5.80;99.90;;;;;;5034604;28;20057;-71
2022/01/07 11:47:54;;;;;;;7.28;5.10;;;5.80;99.90;;;;;;5017048;28;20061;-71
2022/01/07 11:50:19;;;;;;;8.00;6.45;;;5.80;99.90;;;;;;5034972;28;20053;-71
2022/01/07 11:53:00;;;;;;;8.45;6.30;;;5.70;99.90;;;;;;5015415;28;20733;-72
2022/01/07 11:55:34;;;;;;;11.10;6.53;;;5.70;99.90;;;;;;5015789;28;20056;-74
2022/01/07 11:58:02;;;;;;;8.50;6.00;;;5.60;99.90;;;;;;5016838;28;20136;-73
2022/01/07 12:00:51;;;;;;;8.30;5.70;;;5.60;99.90;;;;;;5035339;28;20057;-71
2022/01/07 12:03:43;;;;;;;7.25;5.47;;;5.60;99.90;;;;;;5016161;28;20053;-72
2022/01/07 12:06:24;;;;;;;9.75;7.68;;;5.50;99.90;;;;;;5015894;28;20906;-72
2022/01/07 12:09:10;;;;;;;13.48;7.85;;;5.50;99.90;;;;;;5017814;28;20069;-74
2022/01/07 12:11:43;;;;;;;13.70;7.78;;;5.60;99.90;;;;;;5019063;28;20045;-74
2022/01/07 12:14:14;;;;;;;12.38;7.22;;;5.60;99.90;;;;;;5036862;28;20045;-74
2022/01/07 12:16:43;;;;;;;12.52;7.75;;;5.60;99.90;;;;;;5036917;28;20167;-74
2022/01/07 12:19:11;;;;;;;8.48;6.03;;;5.60;99.90;;;;;;5019466;28;20056;-74
2022/01/07 12:21:38;;;;;;;12.30;6.57;;;5.60;99.90;;;;;;5036624;28;20951;-74
2022/01/07 12:24:21;;;;;;;12.52;7.05;;;5.70;99.90;;;;;;5019055;28;20202;-72
2022/01/07 12:27:00;;;;;;;13.17;8.00;;;5.80;99.90;;;;;;5017896;28;20071;-70
2022/01/07 12:29:30;;;;;;;9.93;6.57;;;5.80;99.90;;;;;;5018564;28;20872;-72
2022/01/07 12:31:56;;;;;;;10.65;6.20;;;5.80;99.90;;;;;;5018475;28;20551;-71
2022/01/07 12:34:27;;;;;;;5.05;3.45;;;5.80;99.90;;;;;;5016804;28;20049;-77
2022/01/07 12:36:57;;;;;;;8.25;3.75;;;5.70;99.90;;;;;;5015304;28;20049;-74
2022/01/07 12:39:29;;;;;;;3.63;2.80;;;5.60;99.90;;;;;;5016678;28;20045;-76
2022/01/07 12:41:55;;;;;;;5.25;3.85;;;5.50;99.90;;;;;;5016292;28;20049;-77
2022/01/07 12:44:22;;;;;;;7.50;2.97;;;5.50;99.90;;;;;;5035042;28;20053;-74
2022/01/07 12:46:56;;;;;;;2.70;2.22;;;5.50;99.90;;;;;;5019164;28;20144;-77
2022/01/07 12:49:40;;;;;;;3.35;2.00;;;5.40;99.90;;;;;;5019286;28;20802;-75
2022/01/07 12:52:17;;;;;;;2.90;1.83;;;5.40;99.90;;;;;;5037257;28;20499;-76
2022/01/07 12:55:18;;;;;;;4.70;2.85;;;5.30;99.90;;;;;;5036372;28;20127;-77
2022/01/07 12:57:57;;;;;;;3.92;2.55;;;5.30;99.90;;;;;;5035026;28;20044;-77
2022/01/07 13:00:33;;;;;;;4.75;2.38;;;5.40;99.90;;;;;;5036224;28;20052;-73
2022/01/07 13:03:03;;;;;;;6.65;2.38;;;5.50;99.90;;;;;;5016939;28;20081;-76
2022/01/07 13:05:37;;;;;;;4.93;2.78;;;5.50;99.90;;;;;;5037080;28;20044;-75